KSUAKSPG

Guest
Details From KSUA - Witham Fld
To KSPG - Albert Whitted
Flight Number -
Tags generated
Created
Modified
Stats Distance 133 nm / 246 km
Max Altitude 12,000 ft / 3,658 m
Waypoints 3
Social Downloads 1
Likes 0
Share VATSIM

Download

Looking for another format? Having issues loading an existing format? Contact us
Advertisement - Login to hide

Notes

Basic altitude profile: - Ascent Rate: 1395ft/min - Ascent Speed: 250kts - Cruise Altitude: 15000ft - Cruise Speed: 420kts - Descent Rate: 1500ft/min - Descent Speed: 250kts Options: - Use NATs: no - Use PACOTS: no - Use low airways: yes - Use high airways: no

Route

KSUA HALLR KSPG

ID Type Via Altitude Latitude Longitude Leg Dist Tot Dist Heading (true) Name
O KSUA APT - 0 ft / 0 m 27.18183˚ -80.22118˚ - 0 nm - Witham Fld
HALLR FIX - 12,000 ft / 3,658 m 27.54467˚ -81.59883˚ 76 nm 76 nm 287° / 286° -
O KSPG APT - 0 ft / 0 m 27.76505˚ -82.62674˚ 56 nm 132 nm 284° / 283° Albert Whitted

Altitude Profile

Advertisement - Login to hide

KSUA

Details ICAO KSUA (SUA)
Name Witham Fld
Region United States
Timezone America/New_York (UTC-5.0)
Stats Elevation 18 ft / 5 m (AMSL)
Location 27.181835° -80.221181°
Runways 3
Magnetic Variation 6.892° W

METAR

KSUA 130147Z 260004KT 7SM SKC 18/12 A2997

Decode

TAF

TAF KSUA 122340Z 1300/1324 27010KT P6SM SKC FM130600 30008KT P6SM SKC FM131500 33008KT P6SM SKC

Decode

Departure Runways

ID Width Length Bearing (true) Bearing (mag) Surface Threshold Offset Overrun Length
07 100 ft / 30 m 4,748 ft / 1,447 m 67.99° 74.88° Asphalt 0 ft / 0 m 0 ft / 0 m
12 100 ft / 30 m 5,834 ft / 1,778 m 110.55° 117.44° Asphalt 449 ft / 137 m 499 ft / 152 m
16 100 ft / 30 m 5,190 ft / 1,582 m 154.40° 161.29° Asphalt 335 ft / 102 m 180 ft / 55 m
25 100 ft / 30 m 4,748 ft / 1,447 m 247.99° 254.88° Asphalt 0 ft / 0 m 151 ft / 46 m
30 100 ft / 30 m 5,834 ft / 1,778 m 290.55° 297.44° Asphalt 0 ft / 0 m 699 ft / 213 m
34 100 ft / 30 m 5,190 ft / 1,582 m 334.40° 341.29° Asphalt 932 ft / 284 m 151 ft / 46 m

KSPG

Details ICAO KSPG (SPG)
Name Albert Whitted
Region United States
Timezone America/New_York (UTC-5.0)
Stats Elevation 7 ft / 2 m (AMSL)
Location 27.765051° -82.626745°
Runways 2
Magnetic Variation 5.465° W

METAR

KSPG 130153Z AUTO 35010KT 10SM CLR 17/08 A2999 RMK AO2 SLP154 T01720078

Decode

TAF

Not found

Destination Runways

ID Width Length Bearing (true) Bearing (mag) Surface Threshold Offset Overrun Length
06 75 ft / 23 m 3,676 ft / 1,120 m 61.97° 67.44° Asphalt 558 ft / 170 m 0 ft / 0 m
18 150 ft / 46 m 2,875 ft / 876 m 179.64° 185.11° Asphalt 0 ft / 0 m 0 ft / 0 m
24 75 ft / 23 m 3,676 ft / 1,120 m 241.98° 247.45° Asphalt 263 ft / 80 m 0 ft / 0 m
36 150 ft / 46 m 2,875 ft / 876 m 359.64° 5.11° Asphalt 0 ft / 0 m 0 ft / 0 m